createdAt,value
2023-05-07T00:01:27.183Z,99318.38
2023-05-07T00:03:56.139Z,99316.81
2023-05-07T00:06:25.133Z,99318.94
2023-05-07T00:08:53.811Z,99325.88
2023-05-07T00:11:22.681Z,99321.63
2023-05-07T00:13:51.465Z,99312.50
2023-05-07T00:16:21.777Z,99310.88
2023-05-07T00:18:50.803Z,99306.72
2023-05-07T00:21:19.537Z,99309.88
2023-05-07T00:23:48.239Z,99322.75
2023-05-07T00:26:16.936Z,99313.06
2023-05-07T00:28:46.201Z,99312.81
2023-05-07T00:31:14.902Z,99317.53
2023-05-07T00:33:45.001Z,99318.50
2023-05-07T00:36:13.712Z,99315.00
2023-05-07T00:38:42.470Z,99317.34
2023-05-07T00:41:11.330Z,99311.88
2023-05-07T00:43:40.385Z,99306.88
2023-05-07T00:46:09.215Z,99310.94
2023-05-07T00:48:38.001Z,99308.81
2023-05-07T00:51:08.312Z,99309.97
2023-05-07T00:53:37.582Z,99314.75
2023-05-07T00:56:08.275Z,99306.00
2023-05-07T00:58:37.343Z,99311.38
2023-05-07T01:01:06.228Z,99308.69
2023-05-07T01:03:34.886Z,99309.06
2023-05-07T01:06:06.973Z,99311.38
2023-05-07T01:08:37.947Z,99312.69
2023-05-07T01:11:07.071Z,99319.19
2023-05-07T01:13:37.328Z,99313.97
2023-05-07T01:16:08.232Z,99320.16
2023-05-07T01:18:36.997Z,99311.38
2023-05-07T01:21:07.840Z,99315.69
2023-05-07T01:23:38.736Z,99312.91
2023-05-07T01:26:07.535Z,99320.97
2023-05-07T01:28:36.994Z,99312.34
2023-05-07T01:31:07.421Z,99323.66
2023-05-07T01:33:42.922Z,99320.69
2023-05-07T01:36:13.702Z,99320.56
2023-05-07T01:38:45.463Z,99323.81
2023-05-07T01:41:14.774Z,99328.16
2023-05-07T01:43:45.254Z,99331.09
2023-05-07T01:46:15.293Z,99333.91
2023-05-07T01:48:46.986Z,99332.53
2023-05-07T01:51:15.722Z,99331.81
2023-05-07T01:53:48.900Z,99329.13
2023-05-07T01:56:17.857Z,99326.66
2023-05-07T01:58:48.111Z,99329.25
2023-05-07T02:01:17.264Z,99338.59
2023-05-07T02:03:46.408Z,99327.16
2023-05-07T02:06:22.735Z,99322.47
2023-05-07T02:08:55.625Z,99325.63
2023-05-07T02:11:24.646Z,99321.66
2023-05-07T02:13:54.076Z,99329.69
2023-05-07T02:16:23.405Z,99331.09
2023-05-07T02:18:53.243Z,99332.94
2023-05-07T02:21:23.226Z,99332.63
2023-05-07T02:23:52.032Z,99340.19
2023-05-07T02:26:22.586Z,99328.31
2023-05-07T02:28:51.936Z,99334.13
2023-05-07T02:31:20.780Z,99334.72
2023-05-07T02:33:49.610Z,99343.38
2023-05-07T02:36:19.243Z,99342.06
2023-05-07T02:38:54.558Z,99333.19
2023-05-07T02:41:24.693Z,99335.44
2023-05-07T02:43:53.712Z,99327.16
2023-05-07T02:46:22.602Z,99331.69
2023-05-07T02:48:59.189Z,99333.69
2023-05-07T02:51:29.113Z,99325.38
2023-05-07T02:54:02.025Z,99324.56
2023-05-07T02:56:33.318Z,99331.56
2023-05-07T02:59:02.240Z,99335.88
2023-05-07T03:01:35.813Z,99331.47
2023-05-07T03:04:07.928Z,99327.16
2023-05-07T03:06:36.848Z,99324.34
2023-05-07T03:09:05.955Z,99324.09
2023-05-07T03:11:36.637Z,99328.41
2023-05-07T03:14:05.417Z,99331.81
2023-05-07T03:16:34.337Z,99333.22
2023-05-07T03:19:04.633Z,99339.50
2023-05-07T03:21:34.865Z,99336.13
2023-05-07T03:24:03.900Z,99332.75
2023-05-07T03:26:32.985Z,99337.53
2023-05-07T03:29:03.463Z,99338.81
2023-05-07T03:31:32.214Z,99341.38
2023-05-07T03:34:02.492Z,99344.06
2023-05-07T03:36:31.837Z,99349.44
2023-05-07T03:39:00.564Z,99343.50
2023-05-07T03:41:37.758Z,99350.94
2023-05-07T03:44:08.173Z,99351.19
2023-05-07T03:46:37.277Z,99352.47
2023-05-07T03:49:06.145Z,99355.88
2023-05-07T03:51:35.043Z,99354.94
2023-05-07T03:54:03.833Z,99339.88
2023-05-07T03:56:34.157Z,99343.72
2023-05-07T03:59:03.375Z,99345.13
2023-05-07T04:01:33.626Z,99348.50
2023-05-07T04:04:02.817Z,99348.75
2023-05-07T04:06:32.787Z,99347.81
2023-05-07T04:09:01.800Z,99355.97
2023-05-07T04:11:31.396Z,99355.97
2023-05-07T04:14:00.554Z,99359.72
2023-05-07T04:16:29.461Z,99356.44
2023-05-07T04:19:00.000Z,99360.41
2023-05-07T04:21:29.553Z,99357.97
2023-05-07T04:23:59.109Z,99358.91
2023-05-07T04:26:27.868Z,99364.63
2023-05-07T04:28:57.784Z,99368.72
2023-05-07T04:31:27.710Z,99373.59
2023-05-07T04:34:00.957Z,99370.66
2023-05-07T04:36:30.683Z,99380.47
2023-05-07T04:39:05.619Z,99378.50
2023-05-07T04:41:34.996Z,99381.66
2023-05-07T04:44:05.217Z,99383.28
2023-05-07T04:46:36.363Z,99395.88
2023-05-07T04:49:07.032Z,99392.34
2023-05-07T04:51:36.893Z,99398.13
2023-05-07T04:54:06.138Z,99399.00
2023-05-07T04:56:35.147Z,99395.38
2023-05-07T04:59:04.762Z,99397.56
2023-05-07T05:01:33.967Z,99399.00
2023-05-07T05:04:03.231Z,99403.28
2023-05-07T05:06:34.183Z,99405.97
2023-05-07T05:09:06.813Z,99403.53
2023-05-07T05:11:36.504Z,99402.72
2023-05-07T05:14:05.431Z,99408.09
2023-05-07T05:16:34.851Z,99402.59
2023-05-07T05:19:05.020Z,99399.91
2023-05-07T05:21:37.490Z,99410.41
2023-05-07T05:24:10.882Z,99419.34
2023-05-07T05:26:41.822Z,99414.38
2023-05-07T05:29:11.436Z,99411.53
2023-05-07T05:31:43.784Z,99415.31
2023-05-07T05:34:13.257Z,99430.34
2023-05-07T05:36:44.060Z,99420.09
2023-05-07T05:39:13.946Z,99426.78
2023-05-07T05:41:42.831Z,99429.91
2023-05-07T05:44:11.839Z,99428.53
2023-05-07T05:46:41.414Z,99424.66
2023-05-07T05:49:10.642Z,99428.41
2023-05-07T05:51:40.516Z,99434.34
2023-05-07T05:54:10.623Z,99444.50
2023-05-07T05:56:40.163Z,99444.19
2023-05-07T05:59:10.170Z,99444.03
2023-05-07T06:01:40.033Z,99443.56
2023-05-07T06:04:09.247Z,99440.75
2023-05-07T06:06:38.001Z,99454.94
2023-05-07T06:09:06.770Z,99449.25
2023-05-07T06:11:45.645Z,99445.59
2023-05-07T06:14:15.410Z,99459.38
2023-05-07T06:16:44.149Z,99465.50
2023-05-07T06:19:13.305Z,99467.91
2023-05-07T06:21:43.120Z,99467.91
2023-05-07T06:24:14.124Z,99463.22
2023-05-07T06:26:44.445Z,99461.59
2023-05-07T06:29:13.520Z,99457.16
2023-05-07T06:31:44.447Z,99458.50
2023-05-07T06:34:15.360Z,99469.47
2023-05-07T06:36:44.430Z,99471.34
2023-05-07T06:40:02.965Z,99469.72
2023-05-07T06:42:35.009Z,99478.78
2023-05-07T06:45:22.591Z,99476.03
2023-05-07T06:47:52.245Z,99480.03
2023-05-07T06:50:21.354Z,99475.97
2023-05-07T06:52:51.813Z,99470.22
2023-05-07T06:55:21.138Z,99477.22
2023-05-07T06:57:52.479Z,99477.25
2023-05-07T07:00:25.154Z,99476.91
2023-05-07T07:02:57.662Z,99489.63
2023-05-07T07:05:29.822Z,99490.91
2023-05-07T07:08:00.076Z,99485.66
2023-05-07T07:10:28.894Z,99486.59
2023-05-07T07:12:59.985Z,99495.78
2023-05-07T07:15:29.029Z,99497.19
2023-05-07T07:17:58.841Z,99498.81
2023-05-07T07:20:28.037Z,99503.09
2023-05-07T07:22:58.738Z,99495.66
2023-05-07T07:25:30.430Z,99489.28
2023-05-07T07:28:00.692Z,99495.59
2023-05-07T07:30:31.345Z,99495.78
2023-05-07T07:33:03.490Z,99492.09
2023-05-07T07:35:36.082Z,99501.78
2023-05-07T07:38:07.127Z,99489.16
2023-05-07T07:40:38.222Z,99495.72
2023-05-07T07:43:10.475Z,99492.81
2023-05-07T07:45:41.144Z,99492.81
2023-05-07T07:48:11.455Z,99505.16
2023-05-07T07:50:45.091Z,99500.72
2023-05-07T07:53:18.273Z,99505.28
2023-05-07T07:55:48.635Z,99511.91
2023-05-07T07:58:23.144Z,99515.38
2023-05-07T08:00:52.135Z,99513.19
2023-05-07T08:03:21.074Z,99521.47
2023-05-07T08:06:19.168Z,99516.53
2023-05-07T08:08:48.013Z,99522.63
2023-05-07T08:11:17.026Z,99522.38
2023-05-07T08:13:48.716Z,99521.13
2023-05-07T08:16:17.831Z,99529.47
2023-05-07T08:18:46.936Z,99527.09
2023-05-07T08:21:15.939Z,99524.69
2023-05-07T08:23:45.033Z,99527.75
2023-05-07T08:26:14.464Z,99523.28
2023-05-07T08:29:03.542Z,99528.56
2023-05-07T08:31:35.687Z,99532.19
2023-05-07T08:34:09.525Z,99524.28
2023-05-07T08:36:43.053Z,99532.00
2023-05-07T08:39:13.805Z,99521.78
2023-05-07T08:41:45.876Z,99535.13
2023-05-07T08:44:19.188Z,99532.09
2023-05-07T08:46:50.985Z,99541.34
2023-05-07T08:49:20.256Z,99544.38
2023-05-07T08:51:49.837Z,99539.72
2023-05-07T08:54:19.213Z,99539.03
2023-05-07T08:56:48.224Z,99552.63
2023-05-07T08:59:19.405Z,99544.47
2023-05-07T09:01:48.665Z,99552.28
2023-05-07T09:04:19.246Z,99549.56
2023-05-07T09:06:49.244Z,99550.53
2023-05-07T09:09:20.282Z,99557.31
2023-05-07T09:11:51.909Z,99558.22
2023-05-07T09:14:24.523Z,99563.13
2023-05-07T09:16:55.479Z,99564.66
2023-05-07T09:19:26.458Z,99558.22
2023-05-07T09:22:09.220Z,99564.31
2023-05-07T09:24:51.297Z,99562.94
2023-05-07T09:27:28.675Z,99553.84
2023-05-07T09:30:01.288Z,99561.44
2023-05-07T09:32:31.867Z,99562.13
2023-05-07T09:35:03.697Z,99550.09
2023-05-07T09:37:34.751Z,99545.44
2023-05-07T09:40:04.581Z,99553.63
2023-05-07T09:42:33.624Z,99552.94
2023-05-07T09:45:10.104Z,99550.72
2023-05-07T09:47:46.979Z,99549.22
2023-05-07T09:50:23.867Z,99560.78
2023-05-07T09:52:54.479Z,99549.53
2023-05-07T09:55:24.085Z,99559.22
2023-05-07T09:57:55.305Z,99561.59
2023-05-07T10:00:29.963Z,99566.84
2023-05-07T10:03:09.732Z,99567.09
2023-05-07T10:05:48.674Z,99563.22
2023-05-07T10:08:21.615Z,99558.53
2023-05-07T10:10:53.973Z,99564.84
2023-05-07T10:13:47.486Z,99564.16
2023-05-07T10:16:21.338Z,99563.09
2023-05-07T10:18:54.167Z,99564.59
2023-05-07T10:21:53.217Z,99567.78
2023-05-07T10:25:13.570Z,99569.03
2023-05-07T10:27:48.813Z,99564.38
2023-05-07T10:30:38.114Z,99560.91
2023-05-07T10:33:14.096Z,99560.44
2023-05-07T10:35:50.841Z,99560.19
2023-05-07T10:38:22.187Z,99560.63
2023-05-07T10:40:56.258Z,99556.66
2023-05-07T10:43:54.702Z,99564.59
2023-05-07T10:46:28.672Z,99567.41
2023-05-07T10:49:17.747Z,99568.13
2023-05-07T10:53:32.461Z,99561.94
2023-05-07T10:56:52.503Z,99555.16
2023-05-07T10:59:45.447Z,99562.63
2023-05-07T11:02:23.935Z,99565.28
2023-05-07T11:05:24.251Z,99567.75
2023-05-07T11:08:07.404Z,99566.13
2023-05-07T11:10:53.671Z,99570.25
2023-05-07T11:13:48.521Z,99568.50
2023-05-07T11:16:37.964Z,99567.88
2023-05-07T11:19:19.083Z,99567.75
2023-05-07T11:21:55.390Z,99566.25
2023-05-07T11:24:42.824Z,99564.47
2023-05-07T11:27:14.589Z,99563.09
2023-05-07T11:29:49.724Z,99571.75
2023-05-07T11:32:25.084Z,99568.50
2023-05-07T11:34:56.079Z,99558.31
2023-05-07T11:37:30.968Z,99573.75
2023-05-07T11:40:12.266Z,99565.78
2023-05-07T11:42:44.059Z,99558.84
2023-05-07T11:45:13.759Z,99568.09
2023-05-07T11:47:45.348Z,99570.53
2023-05-07T11:50:14.784Z,99564.34
2023-05-07T11:52:54.733Z,99561.91
2023-05-07T11:55:27.269Z,99556.53
2023-05-07T11:57:57.433Z,99561.34
2023-05-07T12:00:26.390Z,99564.59
2023-05-07T12:02:55.300Z,99568.91
2023-05-07T12:05:24.637Z,99567.13
2023-05-07T12:08:00.563Z,99564.16
2023-05-07T12:10:29.890Z,99563.75
2023-05-07T12:12:58.712Z,99564.31
2023-05-07T12:15:28.460Z,99571.16
2023-05-07T12:17:57.717Z,99562.53
2023-05-07T12:20:26.812Z,99569.63
2023-05-07T12:22:56.963Z,99567.28
2023-05-07T12:25:27.537Z,99569.00
2023-05-07T12:27:57.142Z,99567.63
2023-05-07T12:30:26.767Z,99570.88
2023-05-07T12:32:56.487Z,99575.28
2023-05-07T12:35:31.799Z,99576.59
2023-05-07T12:38:05.292Z,99570.03
2023-05-07T12:40:43.624Z,99562.78
2023-05-07T12:43:19.314Z,99569.47
2023-05-07T12:45:51.581Z,99572.25
2023-05-07T12:48:22.199Z,99573.66
2023-05-07T12:50:52.630Z,99575.44
2023-05-07T12:53:25.861Z,99569.03
2023-05-07T12:56:01.780Z,99561.56
2023-05-07T12:58:32.750Z,99560.44
2023-05-07T13:01:20.608Z,99562.72
2023-05-07T13:03:52.386Z,99557.34
2023-05-07T13:06:21.290Z,99560.84
2023-05-07T13:08:50.156Z,99562.06
2023-05-07T13:11:20.353Z,99555.03
2023-05-07T13:13:49.132Z,99552.22
2023-05-07T13:16:17.855Z,99554.66
2023-05-07T13:18:46.934Z,99537.00
2023-05-07T13:21:15.767Z,99545.69
2023-05-07T13:23:45.227Z,99550.63
2023-05-07T13:26:25.711Z,99539.34
2023-05-07T13:28:57.581Z,99543.22
2023-05-07T13:31:27.546Z,99545.91
2023-05-07T13:33:57.548Z,99542.25
2023-05-07T13:36:30.085Z,99540.69
2023-05-07T13:39:01.846Z,99541.25
2023-05-07T13:41:32.502Z,99546.69
2023-05-07T13:44:02.751Z,99546.25
2023-05-07T13:46:32.177Z,99546.63
2023-05-07T13:49:29.908Z,99540.88
2023-05-07T13:52:23.598Z,99555.06
2023-05-07T13:55:24.014Z,99551.22
2023-05-07T13:57:59.409Z,99549.22
2023-05-07T14:00:31.104Z,99558.66
2023-05-07T14:02:59.975Z,99554.09
2023-05-07T14:05:29.087Z,99558.31
2023-05-07T14:08:00.937Z,99557.69
2023-05-07T14:10:36.865Z,99558.63
2023-05-07T14:13:28.915Z,99555.72
2023-05-07T14:16:38.378Z,99548.53
2023-05-07T14:19:08.311Z,99546.09
2023-05-07T14:22:09.727Z,99543.59
2023-05-07T14:24:42.842Z,99541.72
2023-05-07T14:27:11.740Z,99538.88
2023-05-07T14:29:40.879Z,99536.44
2023-05-07T14:32:14.673Z,99533.19
2023-05-07T14:34:43.606Z,99528.94
2023-05-07T14:37:14.581Z,99525.09
2023-05-07T14:40:04.664Z,99528.28
2023-05-07T14:42:33.496Z,99527.78
2023-05-07T14:45:05.203Z,99525.50
2023-05-07T14:47:35.616Z,99527.69
2023-05-07T14:50:05.023Z,99535.47
2023-05-07T14:52:37.280Z,99530.88
2023-05-07T14:55:07.104Z,99534.06
2023-05-07T14:57:36.235Z,99545.06
2023-05-07T15:00:08.001Z,99549.25
2023-05-07T15:02:38.563Z,99548.66
2023-05-07T15:05:08.872Z,99542.16
2023-05-07T15:07:37.544Z,99541.19
2023-05-07T15:10:07.513Z,99536.91
2023-05-07T15:12:36.372Z,99541.41
2023-05-07T15:15:06.266Z,99541.81
2023-05-07T15:17:34.956Z,99543.78
2023-05-07T15:20:12.192Z,99538.72
2023-05-07T15:22:43.434Z,99542.47
2023-05-07T15:25:13.111Z,99541.50
2023-05-07T15:27:42.048Z,99550.91
2023-05-07T15:30:12.262Z,99545.56
2023-05-07T15:32:41.520Z,99546.47
2023-05-07T15:35:12.414Z,99541.31
2023-05-07T15:37:41.325Z,99554.25
2023-05-07T15:40:36.384Z,99563.25
2023-05-07T15:43:05.125Z,99570.19
2023-05-07T15:45:34.009Z,99570.69
2023-05-07T15:48:02.679Z,99571.25
2023-05-07T15:50:33.044Z,99565.81
2023-05-07T15:53:01.770Z,99574.31
2023-05-07T15:55:31.374Z,99562.72
2023-05-07T15:58:00.127Z,99570.16
2023-05-07T16:00:29.619Z,99564.66
2023-05-07T16:03:00.283Z,99572.63
2023-05-07T16:05:33.099Z,99575.94
2023-05-07T16:08:01.709Z,99570.09
2023-05-07T16:10:30.788Z,99564.63
2023-05-07T16:12:59.573Z,99566.75
2023-05-07T16:15:28.268Z,99570.97
2023-05-07T16:17:59.178Z,99577.13
2023-05-07T16:20:31.163Z,99572.78
2023-05-07T16:23:01.661Z,99565.44
2023-05-07T16:25:30.461Z,99570.00
2023-05-07T16:27:59.350Z,99574.25
2023-05-07T16:30:28.439Z,99573.75
2023-05-07T16:32:57.237Z,99575.38
2023-05-07T16:35:26.035Z,99572.13
2023-05-07T16:37:54.870Z,99567.72
2023-05-07T16:40:25.688Z,99571.47
2023-05-07T16:42:55.633Z,99566.53
2023-05-07T16:45:24.482Z,99573.97
2023-05-07T16:47:53.249Z,99567.66
2023-05-07T16:50:22.079Z,99567.44
2023-05-07T16:52:51.085Z,99570.53
2023-05-07T16:55:20.104Z,99569.03
2023-05-07T16:57:50.299Z,99573.25
2023-05-07T17:00:19.854Z,99575.94
2023-05-07T17:02:48.699Z,99572.09
2023-05-07T17:05:17.650Z,99571.97
2023-05-07T17:07:46.340Z,99582.88
2023-05-07T17:10:15.281Z,99593.63
2023-05-07T17:12:43.969Z,99594.28
2023-05-07T17:15:14.709Z,99600.63
2023-05-07T17:17:43.369Z,99603.44
2023-05-07T17:20:14.773Z,99607.28
2023-05-07T17:22:43.605Z,99603.06
2023-05-07T17:25:14.868Z,99616.75
2023-05-07T17:27:43.897Z,99619.56
2023-05-07T17:30:18.163Z,99613.00
2023-05-07T17:32:46.998Z,99615.81
2023-05-07T17:35:15.684Z,99618.16
2023-05-07T17:37:49.201Z,99617.81
2023-05-07T17:40:18.262Z,99611.97
2023-05-07T17:42:46.930Z,99617.47
2023-05-07T17:45:17.845Z,99619.22
2023-05-07T17:47:47.191Z,99617.81
2023-05-07T17:50:18.524Z,99612.69
2023-05-07T17:52:47.237Z,99615.00
2023-05-07T17:55:16.072Z,99614.44
2023-05-07T17:57:44.830Z,99613.25
2023-05-07T18:00:16.788Z,99615.81
2023-05-07T18:02:45.745Z,99617.22
2023-05-07T18:05:15.848Z,99616.84
2023-05-07T18:07:44.773Z,99617.88
2023-05-07T18:10:13.871Z,99631.78
2023-05-07T18:12:42.845Z,99632.50
2023-05-07T18:15:12.026Z,99641.78
2023-05-07T18:17:42.216Z,99638.38
2023-05-07T18:20:13.020Z,99638.84
2023-05-07T18:22:42.479Z,99640.78
2023-05-07T18:25:11.647Z,99644.84
2023-05-07T18:27:40.472Z,99650.22
2023-05-07T18:30:10.973Z,99645.53
2023-05-07T18:32:41.364Z,99654.06
2023-05-07T18:35:11.038Z,99652.38
2023-05-07T18:37:39.748Z,99654.16
2023-05-07T18:40:10.402Z,99660.38
2023-05-07T18:42:39.440Z,99673.13
2023-05-07T18:45:09.524Z,99663.50
2023-05-07T18:47:38.481Z,99661.41
2023-05-07T18:50:10.328Z,99670.97
2023-05-07T18:52:39.395Z,99681.00
2023-05-07T18:55:10.793Z,99676.91
2023-05-07T18:57:39.604Z,99674.63
2023-05-07T19:00:11.026Z,99674.56
2023-05-07T19:02:40.546Z,99677.44
2023-05-07T19:05:11.136Z,99677.09
2023-05-07T19:07:39.804Z,99677.50
2023-05-07T19:10:10.909Z,99674.09
2023-05-07T19:12:39.721Z,99680.59
2023-05-07T19:15:10.179Z,99681.69
2023-05-07T19:17:38.864Z,99681.22
2023-05-07T19:20:11.501Z,99682.09
2023-05-07T19:22:40.163Z,99690.31
2023-05-07T19:25:10.007Z,99685.03
2023-05-07T19:27:38.978Z,99686.66
2023-05-07T19:30:09.993Z,99689.56
2023-05-07T19:32:38.712Z,99695.16
2023-05-07T19:35:10.067Z,99688.94
2023-05-07T19:37:38.988Z,99699.84
2023-05-07T19:40:09.685Z,99695.34
2023-05-07T19:42:38.530Z,99692.56
2023-05-07T19:45:08.754Z,99699.63
2023-05-07T19:47:37.663Z,99709.59
2023-05-07T19:50:07.869Z,99707.53
2023-05-07T19:52:38.105Z,99715.41
2023-05-07T19:55:08.714Z,99720.31
2023-05-07T19:57:37.526Z,99726.53
2023-05-07T20:00:08.357Z,99727.56
2023-05-07T20:02:41.751Z,99734.56
2023-05-07T20:05:13.886Z,99727.00
2023-05-07T20:07:46.259Z,99722.81
2023-05-07T20:10:15.161Z,99731.47
2023-05-07T20:12:43.887Z,99731.66
2023-05-07T20:15:13.327Z,99737.66
2023-05-07T20:17:42.029Z,99736.16
2023-05-07T20:20:12.640Z,99736.22
2023-05-07T20:22:41.528Z,99737.09
2023-05-07T20:25:13.611Z,99741.84
2023-05-07T20:27:42.579Z,99741.44
2023-05-07T20:30:12.966Z,99738.50
2023-05-07T20:32:41.888Z,99746.06
2023-05-07T20:35:11.705Z,99744.25
2023-05-07T20:37:41.045Z,99747.72
2023-05-07T20:40:12.574Z,99761.94
2023-05-07T20:42:42.677Z,99754.59
2023-05-07T20:45:13.137Z,99760.19
2023-05-07T20:47:42.122Z,99757.50
2023-05-07T20:50:12.050Z,99759.81
2023-05-07T20:52:40.982Z,99762.63
2023-05-07T20:55:11.977Z,99758.28
2023-05-07T20:57:40.668Z,99757.72
2023-05-07T21:00:11.381Z,99757.91
2023-05-07T21:02:40.317Z,99756.09
2023-05-07T21:05:09.801Z,99759.38
2023-05-07T21:07:38.551Z,99755.69
2023-05-07T21:10:08.698Z,99755.66
2023-05-07T21:12:39.782Z,99762.81
2023-05-07T21:15:10.770Z,99759.50
2023-05-07T21:17:39.437Z,99758.28
2023-05-07T21:20:10.159Z,99758.09
2023-05-07T21:22:38.814Z,99758.19
2023-05-07T21:25:08.124Z,99764.75
2023-05-07T21:27:38.408Z,99767.25
2023-05-07T21:30:08.886Z,99764.97
2023-05-07T21:32:37.683Z,99763.94
2023-05-07T21:35:08.054Z,99771.38
2023-05-07T21:37:36.880Z,99768.47
2023-05-07T21:40:06.748Z,99770.13
2023-05-07T21:42:35.684Z,99777.53
2023-05-07T21:45:08.850Z,99774.69
2023-05-07T21:47:37.577Z,99779.19
2023-05-07T21:50:07.661Z,99773.44
2023-05-07T21:52:36.536Z,99774.09
2023-05-07T21:55:05.895Z,99773.06
2023-05-07T21:57:36.109Z,99776.97
2023-05-07T22:00:05.890Z,99786.25
2023-05-07T22:02:36.509Z,99787.88
2023-05-07T22:05:05.681Z,99786.44
2023-05-07T22:07:34.448Z,99782.09
2023-05-07T22:10:03.221Z,99789.97
2023-05-07T22:12:31.897Z,99781.69
2023-05-07T22:15:01.127Z,99781.28
2023-05-07T22:17:29.859Z,99785.03
2023-05-07T22:19:59.937Z,99786.84
2023-05-07T22:22:28.572Z,99779.63
2023-05-07T22:24:57.238Z,99782.53
2023-05-07T22:27:26.154Z,99785.25
2023-05-07T22:29:54.833Z,99781.31
2023-05-07T22:32:23.506Z,99775.16
2023-05-07T22:34:52.185Z,99780.09
2023-05-07T22:37:23.427Z,99777.69
2023-05-07T22:39:53.109Z,99781.16
2023-05-07T22:42:21.804Z,99782.59
2023-05-07T22:44:53.931Z,99773.97
2023-05-07T22:47:22.920Z,99776.81
2023-05-07T22:49:51.823Z,99778.88
2023-05-07T22:52:22.020Z,99773.53
2023-05-07T22:54:50.689Z,99775.38
2023-05-07T22:57:19.353Z,99773.56
2023-05-07T22:59:48.127Z,99776.63
2023-05-07T23:02:16.770Z,99769.44
2023-05-07T23:04:46.182Z,99766.38
2023-05-07T23:07:15.064Z,99776.84
2023-05-07T23:09:45.205Z,99776.69
2023-05-07T23:12:13.926Z,99777.28
2023-05-07T23:14:42.644Z,99773.38
2023-05-07T23:17:11.381Z,99785.69
2023-05-07T23:19:40.151Z,99780.94
2023-05-07T23:22:10.320Z,99780.94
2023-05-07T23:24:39.295Z,99783.47
2023-05-07T23:27:09.963Z,99784.09
2023-05-07T23:29:38.726Z,99784.09
2023-05-07T23:32:07.378Z,99777.50
2023-05-07T23:34:36.113Z,99782.47
2023-05-07T23:37:04.768Z,99785.34
2023-05-07T23:39:33.524Z,99785.56
2023-05-07T23:42:02.229Z,99784.34
2023-05-07T23:44:32.294Z,99791.75
2023-05-07T23:47:01.146Z,99789.69
2023-05-07T23:49:29.925Z,99790.53
2023-05-07T23:51:58.570Z,99782.91
2023-05-07T23:54:27.227Z,99779.78
2023-05-07T23:56:55.858Z,99784.31
2023-05-07T23:59:24.538Z,99788.84
